Terminal Aerodrome Forecast
Issued by NWS

Home | Current Version | Previous Version | Text Only | Print | Product List | Glossary On
Versions: 1 2 3 4 5 6 7 8 9 10 11 12 13 14 15 16 17 18 19 20 21 22 23 24 25 26
000
FTUS43 KDLH 031250 AAA
TAFHIB
TAF AMD
KHIB 031250Z 0313/0412 22003KT P6SM VCSH SCT080 BKN100
      TEMPO 0313/0316 P6SM BKN015
     FM031600 26009KT P6SM SCT080
     FM031800 31009KT P6SM VCSH BKN050
      TEMPO 0318/0321 6SM -TSRA BKN035CB
     FM032100 32007KT P6SM SCT070=

USA.gov is the U.S. government's official web portal to all federal, state and local government web resources and services.